sensor_id;sensor_type;location;lat;lon;timestamp;P1;durP1;ratioP1;P2;durP2;ratioP2
46028;SDS011;31763;48.180;7.904;2022-10-16T00:01:38;4.25;;;1.08;;
46028;SDS011;31763;48.180;7.904;2022-10-16T00:04:05;4.07;;;0.80;;
46028;SDS011;31763;48.180;7.904;2022-10-16T00:06:32;2.58;;;0.60;;
46028;SDS011;31763;48.180;7.904;2022-10-16T00:08:59;1.27;;;0.80;;
46028;SDS011;31763;48.180;7.904;2022-10-16T00:11:30;2.15;;;0.60;;
46028;SDS011;31763;48.180;7.904;2022-10-16T00:14:01;4.03;;;0.73;;
46028;SDS011;31763;48.180;7.904;2022-10-16T00:16:30;7.63;;;0.80;;
46028;SDS011;31763;48.180;7.904;2022-10-16T00:18:57;2.60;;;0.70;;
46028;SDS011;31763;48.180;7.904;2022-10-16T00:21:26;3.08;;;0.65;;
46028;SDS011;31763;48.180;7.904;2022-10-16T00:24:03;2.90;;;0.60;;
46028;SDS011;31763;48.180;7.904;2022-10-16T00:26:34;2.95;;;0.75;;
46028;SDS011;31763;48.180;7.904;2022-10-16T00:29:03;2.75;;;0.68;;
46028;SDS011;31763;48.180;7.904;2022-10-16T00:31:31;8.18;;;0.80;;
46028;SDS011;31763;48.180;7.904;2022-10-16T00:33:58;2.42;;;0.75;;
46028;SDS011;31763;48.180;7.904;2022-10-16T00:36:26;2.47;;;0.75;;
46028;SDS011;31763;48.180;7.904;2022-10-16T00:38:54;0.73;;;0.70;;
46028;SDS011;31763;48.180;7.904;2022-10-16T00:41:24;3.30;;;0.88;;
46028;SDS011;31763;48.180;7.904;2022-10-16T00:46:20;1.40;;;0.70;;
46028;SDS011;31763;48.180;7.904;2022-10-16T00:49:14;3.10;;;0.98;;
46028;SDS011;31763;48.180;7.904;2022-10-16T00:51:44;1.63;;;0.43;;
46028;SDS011;31763;48.180;7.904;2022-10-16T00:54:18;2.72;;;0.82;;
46028;SDS011;31763;48.180;7.904;2022-10-16T00:56:49;2.30;;;0.65;;
46028;SDS011;31763;48.180;7.904;2022-10-16T00:59:21;2.40;;;0.80;;
46028;SDS011;31763;48.180;7.904;2022-10-16T01:01:59;12.55;;;1.00;;
46028;SDS011;31763;48.180;7.904;2022-10-16T01:04:26;3.25;;;0.63;;
46028;SDS011;31763;48.180;7.904;2022-10-16T01:13:55;8.50;;;0.95;;
46028;SDS011;31763;48.180;7.904;2022-10-16T01:19:23;2.72;;;0.77;;
46028;SDS011;31763;48.180;7.904;2022-10-16T01:22:33;1.08;;;0.60;;
46028;SDS011;31763;48.180;7.904;2022-10-16T01:25:36;1.80;;;0.63;;
46028;SDS011;31763;48.180;7.904;2022-10-16T01:28:36;1.85;;;0.63;;
46028;SDS011;31763;48.180;7.904;2022-10-16T01:31:11;2.97;;;0.60;;
46028;SDS011;31763;48.180;7.904;2022-10-16T01:33:46;2.42;;;0.60;;
46028;SDS011;31763;48.180;7.904;2022-10-16T01:36:31;3.33;;;0.60;;
46028;SDS011;31763;48.180;7.904;2022-10-16T01:39:28;1.73;;;0.70;;
46028;SDS011;31763;48.180;7.904;2022-10-16T01:42:20;0.93;;;0.60;;
46028;SDS011;31763;48.180;7.904;2022-10-16T01:45:06;3.55;;;0.52;;
46028;SDS011;31763;48.180;7.904;2022-10-16T01:47:52;1.20;;;0.60;;
46028;SDS011;31763;48.180;7.904;2022-10-16T01:50:38;1.13;;;0.55;;
46028;SDS011;31763;48.180;7.904;2022-10-16T01:53:24;1.77;;;0.70;;
46028;SDS011;31763;48.180;7.904;2022-10-16T01:55:52;3.58;;;0.57;;
46028;SDS011;31763;48.180;7.904;2022-10-16T01:58:21;1.85;;;0.63;;
46028;SDS011;31763;48.180;7.904;2022-10-16T02:00:50;1.63;;;0.68;;
46028;SDS011;31763;48.180;7.904;2022-10-16T02:03:19;0.80;;;0.70;;
46028;SDS011;31763;48.180;7.904;2022-10-16T02:05:51;1.35;;;0.77;;
46028;SDS011;31763;48.180;7.904;2022-10-16T02:08:21;0.70;;;0.63;;
46028;SDS011;31763;48.180;7.904;2022-10-16T02:10:51;1.35;;;0.70;;
46028;SDS011;31763;48.180;7.904;2022-10-16T02:13:23;2.38;;;0.50;;
46028;SDS011;31763;48.180;7.904;2022-10-16T02:15:55;2.30;;;0.50;;
46028;SDS011;31763;48.180;7.904;2022-10-16T02:18:22;1.13;;;0.57;;
46028;SDS011;31763;48.180;7.904;2022-10-16T02:29:49;2.47;;;0.70;;
46028;SDS011;31763;48.180;7.904;2022-10-16T02:32:33;1.13;;;0.65;;
46028;SDS011;31763;48.180;7.904;2022-10-16T02:35:03;2.83;;;0.60;;
46028;SDS011;31763;48.180;7.904;2022-10-16T02:37:31;3.10;;;0.77;;
46028;SDS011;31763;48.180;7.904;2022-10-16T02:39:59;0.40;;;0.40;;
46028;SDS011;31763;48.180;7.904;2022-10-16T02:42:28;1.15;;;0.60;;
46028;SDS011;31763;48.180;7.904;2022-10-16T02:44:59;2.45;;;0.77;;
46028;SDS011;31763;48.180;7.904;2022-10-16T02:47:26;0.95;;;0.57;;
46028;SDS011;31763;48.180;7.904;2022-10-16T02:49:53;6.38;;;0.77;;
46028;SDS011;31763;48.180;7.904;2022-10-16T02:52:19;2.92;;;0.82;;
46028;SDS011;31763;48.180;7.904;2022-10-16T02:54:46;0.82;;;0.65;;
46028;SDS011;31763;48.180;7.904;2022-10-16T02:57:13;3.88;;;0.68;;
46028;SDS011;31763;48.180;7.904;2022-10-16T02:59:40;5.80;;;1.67;;
46028;SDS011;31763;48.180;7.904;2022-10-16T03:02:06;3.10;;;0.80;;
46028;SDS011;31763;48.180;7.904;2022-10-16T03:04:33;1.02;;;0.75;;
46028;SDS011;31763;48.180;7.904;2022-10-16T03:07:00;1.42;;;0.90;;
46028;SDS011;31763;48.180;7.904;2022-10-16T03:09:27;2.58;;;0.50;;
46028;SDS011;31763;48.180;7.904;2022-10-16T03:11:54;1.35;;;0.50;;
46028;SDS011;31763;48.180;7.904;2022-10-16T03:14:20;2.90;;;0.70;;
46028;SDS011;31763;48.180;7.904;2022-10-16T03:16:47;1.00;;;0.70;;
46028;SDS011;31763;48.180;7.904;2022-10-16T03:19:15;5.53;;;1.52;;
46028;SDS011;31763;48.180;7.904;2022-10-16T03:21:43;2.58;;;0.70;;
46028;SDS011;31763;48.180;7.904;2022-10-16T03:24:10;2.42;;;0.60;;
46028;SDS011;31763;48.180;7.904;2022-10-16T03:26:37;2.80;;;0.93;;
46028;SDS011;31763;48.180;7.904;2022-10-16T03:29:04;1.48;;;0.70;;
46028;SDS011;31763;48.180;7.904;2022-10-16T03:31:31;1.05;;;0.60;;
46028;SDS011;31763;48.180;7.904;2022-10-16T03:33:58;4.15;;;0.93;;
46028;SDS011;31763;48.180;7.904;2022-10-16T03:36:25;3.80;;;0.80;;
46028;SDS011;31763;48.180;7.904;2022-10-16T03:38:51;2.42;;;0.80;;
46028;SDS011;31763;48.180;7.904;2022-10-16T03:41:18;3.67;;;0.90;;
46028;SDS011;31763;48.180;7.904;2022-10-16T03:43:45;2.17;;;0.80;;
46028;SDS011;31763;48.180;7.904;2022-10-16T03:46:12;5.88;;;0.98;;
46028;SDS011;31763;48.180;7.904;2022-10-16T03:48:38;1.00;;;0.70;;
46028;SDS011;31763;48.180;7.904;2022-10-16T03:51:06;5.10;;;0.98;;
46028;SDS011;31763;48.180;7.904;2022-10-16T03:53:32;0.88;;;0.70;;
46028;SDS011;31763;48.180;7.904;2022-10-16T03:55:59;0.90;;;0.80;;
46028;SDS011;31763;48.180;7.904;2022-10-16T03:58:26;3.10;;;0.70;;
46028;SDS011;31763;48.180;7.904;2022-10-16T04:00:53;3.67;;;0.80;;
46028;SDS011;31763;48.180;7.904;2022-10-16T04:03:20;3.67;;;1.00;;
46028;SDS011;31763;48.180;7.904;2022-10-16T04:05:47;2.10;;;0.90;;
46028;SDS011;31763;48.180;7.904;2022-10-16T04:08:14;1.83;;;0.75;;
46028;SDS011;31763;48.180;7.904;2022-10-16T04:10:42;5.97;;;1.00;;
46028;SDS011;31763;48.180;7.904;2022-10-16T04:13:09;5.03;;;1.00;;
46028;SDS011;31763;48.180;7.904;2022-10-16T04:15:37;5.50;;;2.65;;
46028;SDS011;31763;48.180;7.904;2022-10-16T04:18:04;1.95;;;0.70;;
46028;SDS011;31763;48.180;7.904;2022-10-16T04:20:32;4.03;;;0.82;;
46028;SDS011;31763;48.180;7.904;2022-10-16T04:22:59;2.65;;;0.98;;
46028;SDS011;31763;48.180;7.904;2022-10-16T04:25:26;4.78;;;1.00;;
46028;SDS011;31763;48.180;7.904;2022-10-16T04:27:53;2.25;;;0.70;;
46028;SDS011;31763;48.180;7.904;2022-10-16T04:30:21;3.80;;;0.82;;
46028;SDS011;31763;48.180;7.904;2022-10-16T04:32:51;2.78;;;1.35;;
46028;SDS011;31763;48.180;7.904;2022-10-16T04:35:19;4.85;;;1.05;;
46028;SDS011;31763;48.180;7.904;2022-10-16T04:37:47;4.60;;;0.90;;
46028;SDS011;31763;48.180;7.904;2022-10-16T04:40:14;2.55;;;0.90;;
46028;SDS011;31763;48.180;7.904;2022-10-16T04:42:41;2.75;;;0.80;;
46028;SDS011;31763;48.180;7.904;2022-10-16T04:45:08;3.08;;;1.00;;
46028;SDS011;31763;48.180;7.904;2022-10-16T04:47:41;5.18;;;0.77;;
46028;SDS011;31763;48.180;7.904;2022-10-16T04:50:08;4.40;;;0.90;;
46028;SDS011;31763;48.180;7.904;2022-10-16T04:52:35;4.28;;;1.50;;
46028;SDS011;31763;48.180;7.904;2022-10-16T04:55:02;2.15;;;0.80;;
46028;SDS011;31763;48.180;7.904;2022-10-16T04:57:29;6.22;;;1.33;;
46028;SDS011;31763;48.180;7.904;2022-10-16T04:59:56;2.17;;;0.85;;
46028;SDS011;31763;48.180;7.904;2022-10-16T05:02:23;4.57;;;1.00;;
46028;SDS011;31763;48.180;7.904;2022-10-16T05:04:49;1.05;;;0.70;;
46028;SDS011;31763;48.180;7.904;2022-10-16T05:07:17;4.43;;;0.90;;
46028;SDS011;31763;48.180;7.904;2022-10-16T05:09:44;2.45;;;0.80;;
46028;SDS011;31763;48.180;7.904;2022-10-16T05:12:11;5.10;;;0.90;;
46028;SDS011;31763;48.180;7.904;2022-10-16T05:14:38;1.63;;;0.80;;
46028;SDS011;31763;48.180;7.904;2022-10-16T05:17:05;2.13;;;0.80;;
46028;SDS011;31763;48.180;7.904;2022-10-16T05:19:31;4.90;;;1.27;;
46028;SDS011;31763;48.180;7.904;2022-10-16T05:21:58;1.90;;;0.70;;
46028;SDS011;31763;48.180;7.904;2022-10-16T05:24:25;5.20;;;0.90;;
46028;SDS011;31763;48.180;7.904;2022-10-16T05:26:52;1.95;;;0.98;;
46028;SDS011;31763;48.180;7.904;2022-10-16T05:29:19;1.83;;;1.10;;
46028;SDS011;31763;48.180;7.904;2022-10-16T05:31:46;3.20;;;1.05;;
46028;SDS011;31763;48.180;7.904;2022-10-16T05:36:44;2.10;;;1.00;;
46028;SDS011;31763;48.180;7.904;2022-10-16T05:39:13;2.10;;;0.80;;
46028;SDS011;31763;48.180;7.904;2022-10-16T05:41:41;0.88;;;0.63;;
46028;SDS011;31763;48.180;7.904;2022-10-16T05:44:08;2.70;;;0.85;;
46028;SDS011;31763;48.180;7.904;2022-10-16T05:46:35;1.02;;;0.65;;
46028;SDS011;31763;48.180;7.904;2022-10-16T05:49:02;2.80;;;0.90;;
46028;SDS011;31763;48.180;7.904;2022-10-16T05:51:29;5.07;;;1.08;;
46028;SDS011;31763;48.180;7.904;2022-10-16T05:53:56;2.40;;;0.90;;
46028;SDS011;31763;48.180;7.904;2022-10-16T05:56:23;5.32;;;3.50;;
46028;SDS011;31763;48.180;7.904;2022-10-16T05:58:49;2.55;;;1.10;;
46028;SDS011;31763;48.180;7.904;2022-10-16T06:01:17;2.17;;;0.68;;
46028;SDS011;31763;48.180;7.904;2022-10-16T06:03:45;2.03;;;0.82;;
46028;SDS011;31763;48.180;7.904;2022-10-16T06:06:12;1.27;;;0.95;;
46028;SDS011;31763;48.180;7.904;2022-10-16T06:08:42;2.80;;;1.00;;
46028;SDS011;31763;48.180;7.904;2022-10-16T06:11:15;2.42;;;0.75;;
46028;SDS011;31763;48.180;7.904;2022-10-16T06:13:44;1.65;;;1.00;;
46028;SDS011;31763;48.180;7.904;2022-10-16T06:16:15;2.38;;;0.70;;
46028;SDS011;31763;48.180;7.904;2022-10-16T06:18:42;2.17;;;0.90;;
46028;SDS011;31763;48.180;7.904;2022-10-16T06:21:10;1.45;;;0.90;;
46028;SDS011;31763;48.180;7.904;2022-10-16T06:23:39;1.48;;;0.77;;
46028;SDS011;31763;48.180;7.904;2022-10-16T06:28:34;4.60;;;1.33;;
46028;SDS011;31763;48.180;7.904;2022-10-16T06:31:02;1.88;;;0.90;;
46028;SDS011;31763;48.180;7.904;2022-10-16T06:33:33;4.38;;;1.00;;
46028;SDS011;31763;48.180;7.904;2022-10-16T06:36:15;1.98;;;1.15;;
46028;SDS011;31763;48.180;7.904;2022-10-16T06:38:43;4.55;;;1.20;;
46028;SDS011;31763;48.180;7.904;2022-10-16T06:41:17;3.60;;;1.30;;
46028;SDS011;31763;48.180;7.904;2022-10-16T06:43:47;2.00;;;0.90;;
46028;SDS011;31763;48.180;7.904;2022-10-16T06:46:16;5.40;;;1.63;;
46028;SDS011;31763;48.180;7.904;2022-10-16T06:48:46;4.30;;;1.15;;
46028;SDS011;31763;48.180;7.904;2022-10-16T06:53:46;2.47;;;1.17;;
46028;SDS011;31763;48.180;7.904;2022-10-16T06:56:31;1.27;;;1.00;;
46028;SDS011;31763;48.180;7.904;2022-10-16T06:58:59;1.40;;;0.90;;
46028;SDS011;31763;48.180;7.904;2022-10-16T07:01:26;7.82;;;1.00;;
46028;SDS011;31763;48.180;7.904;2022-10-16T07:03:54;3.92;;;1.00;;
46028;SDS011;31763;48.180;7.904;2022-10-16T07:06:21;2.80;;;0.93;;
46028;SDS011;31763;48.180;7.904;2022-10-16T07:08:50;1.48;;;0.82;;
46028;SDS011;31763;48.180;7.904;2022-10-16T07:11:19;3.33;;;1.10;;
46028;SDS011;31763;48.180;7.904;2022-10-16T07:13:48;3.42;;;0.77;;
46028;SDS011;31763;48.180;7.904;2022-10-16T07:16:22;2.55;;;1.02;;
46028;SDS011;31763;48.180;7.904;2022-10-16T07:18:54;1.92;;;1.42;;
46028;SDS011;31763;48.180;7.904;2022-10-16T07:21:30;3.75;;;1.38;;
46028;SDS011;31763;48.180;7.904;2022-10-16T07:24:02;3.08;;;0.60;;
46028;SDS011;31763;48.180;7.904;2022-10-16T07:26:32;3.00;;;0.80;;
46028;SDS011;31763;48.180;7.904;2022-10-16T07:29:02;2.97;;;1.00;;
46028;SDS011;31763;48.180;7.904;2022-10-16T07:31:29;3.08;;;0.90;;
46028;SDS011;31763;48.180;7.904;2022-10-16T07:33:57;3.78;;;0.80;;
46028;SDS011;31763;48.180;7.904;2022-10-16T07:36:25;2.67;;;0.70;;
46028;SDS011;31763;48.180;7.904;2022-10-16T07:38:52;2.75;;;0.90;;
46028;SDS011;31763;48.180;7.904;2022-10-16T07:41:25;1.58;;;0.90;;
46028;SDS011;31763;48.180;7.904;2022-10-16T07:43:52;1.10;;;0.75;;
46028;SDS011;31763;48.180;7.904;2022-10-16T07:46:21;2.92;;;0.80;;
46028;SDS011;31763;48.180;7.904;2022-10-16T07:48:49;3.25;;;0.90;;
46028;SDS011;31763;48.180;7.904;2022-10-16T07:51:19;3.90;;;1.00;;
46028;SDS011;31763;48.180;7.904;2022-10-16T07:53:49;5.07;;;1.00;;
46028;SDS011;31763;48.180;7.904;2022-10-16T07:56:17;3.10;;;1.02;;
46028;SDS011;31763;48.180;7.904;2022-10-16T07:58:45;2.05;;;1.08;;
46028;SDS011;31763;48.180;7.904;2022-10-16T08:01:13;2.15;;;1.00;;
46028;SDS011;31763;48.180;7.904;2022-10-16T08:03:44;3.15;;;1.30;;
46028;SDS011;31763;48.180;7.904;2022-10-16T08:06:16;2.25;;;1.08;;
46028;SDS011;31763;48.180;7.904;2022-10-16T08:08:50;1.98;;;1.05;;
46028;SDS011;31763;48.180;7.904;2022-10-16T08:11:17;2.42;;;0.73;;
46028;SDS011;31763;48.180;7.904;2022-10-16T08:13:43;4.10;;;0.90;;
46028;SDS011;31763;48.180;7.904;2022-10-16T08:16:10;3.20;;;1.33;;
46028;SDS011;31763;48.180;7.904;2022-10-16T08:18:38;4.03;;;1.00;;
46028;SDS011;31763;48.180;7.904;2022-10-16T08:21:06;3.55;;;0.98;;
46028;SDS011;31763;48.180;7.904;2022-10-16T08:23:46;0.80;;;0.65;;
46028;SDS011;31763;48.180;7.904;2022-10-16T08:26:22;4.18;;;1.20;;
46028;SDS011;31763;48.180;7.904;2022-10-16T08:28:49;2.25;;;0.60;;
46028;SDS011;31763;48.180;7.904;2022-10-16T08:31:17;3.13;;;0.85;;
46028;SDS011;31763;48.180;7.904;2022-10-16T08:33:44;2.50;;;0.70;;
46028;SDS011;31763;48.180;7.904;2022-10-16T08:36:13;3.50;;;0.82;;
46028;SDS011;31763;48.180;7.904;2022-10-16T08:38:41;3.30;;;1.90;;
46028;SDS011;31763;48.180;7.904;2022-10-16T08:47:04;5.13;;;1.00;;
46028;SDS011;31763;48.180;7.904;2022-10-16T08:50:32;3.85;;;0.90;;
46028;SDS011;31763;48.180;7.904;2022-10-16T08:52:45;4.30;;;2.03;;
46028;SDS011;31763;48.180;7.904;2022-10-16T08:57:58;7.07;;;1.50;;
46028;SDS011;31763;48.180;7.904;2022-10-16T09:00:27;7.03;;;1.95;;
46028;SDS011;31763;48.180;7.904;2022-10-16T09:06:48;2.88;;;1.40;;
46028;SDS011;31763;48.180;7.904;2022-10-16T09:16:50;2.15;;;0.73;;
46028;SDS011;31763;48.180;7.904;2022-10-16T09:19:38;2.40;;;0.90;;
46028;SDS011;31763;48.180;7.904;2022-10-16T09:22:34;1.00;;;0.90;;
46028;SDS011;31763;48.180;7.904;2022-10-16T09:25:10;1.50;;;0.90;;
46028;SDS011;31763;48.180;7.904;2022-10-16T09:27:44;3.72;;;1.42;;
46028;SDS011;31763;48.180;7.904;2022-10-16T09:30:18;2.90;;;0.68;;
46028;SDS011;31763;48.180;7.904;2022-10-16T09:32:48;3.50;;;0.82;;
46028;SDS011;31763;48.180;7.904;2022-10-16T09:35:22;1.88;;;0.90;;
46028;SDS011;31763;48.180;7.904;2022-10-16T09:38:04;2.22;;;1.45;;
46028;SDS011;31763;48.180;7.904;2022-10-16T09:40:36;4.30;;;0.95;;
46028;SDS011;31763;48.180;7.904;2022-10-16T09:46:27;0.98;;;0.90;;
46028;SDS011;31763;48.180;7.904;2022-10-16T09:55:26;2.33;;;0.90;;
46028;SDS011;31763;48.180;7.904;2022-10-16T09:59:08;2.85;;;0.88;;
46028;SDS011;31763;48.180;7.904;2022-10-16T10:08:00;1.50;;;0.73;;
46028;SDS011;31763;48.180;7.904;2022-10-16T10:10:32;1.23;;;0.90;;
46028;SDS011;31763;48.180;7.904;2022-10-16T10:13:20;1.92;;;1.20;;
46028;SDS011;31763;48.180;7.904;2022-10-16T10:15:51;1.58;;;1.15;;
46028;SDS011;31763;48.180;7.904;2022-10-16T10:18:19;2.20;;;0.80;;
46028;SDS011;31763;48.180;7.904;2022-10-16T10:21:00;3.40;;;0.90;;
46028;SDS011;31763;48.180;7.904;2022-10-16T10:23:29;1.92;;;0.80;;
46028;SDS011;31763;48.180;7.904;2022-10-16T10:46:35;3.35;;;1.15;;
46028;SDS011;31763;48.180;7.904;2022-10-16T10:49:16;3.67;;;1.10;;
46028;SDS011;31763;48.180;7.904;2022-10-16T10:52:32;4.57;;;1.10;;
46028;SDS011;31763;48.180;7.904;2022-10-16T10:55:37;2.30;;;1.00;;
46028;SDS011;31763;48.180;7.904;2022-10-16T11:06:52;5.30;;;1.40;;
46028;SDS011;31763;48.180;7.904;2022-10-16T11:09:27;5.60;;;1.50;;
46028;SDS011;31763;48.180;7.904;2022-10-16T11:12:07;1.75;;;1.00;;
46028;SDS011;31763;48.180;7.904;2022-10-16T11:17:35;3.70;;;1.20;;
46028;SDS011;31763;48.180;7.904;2022-10-16T11:20:13;5.20;;;1.27;;
46028;SDS011;31763;48.180;7.904;2022-10-16T11:25:27;2.38;;;1.48;;
46028;SDS011;31763;48.180;7.904;2022-10-16T11:28:02;1.67;;;1.23;;
46028;SDS011;31763;48.180;7.904;2022-10-16T11:39:46;4.65;;;1.30;;
46028;SDS011;31763;48.180;7.904;2022-10-16T11:42:21;2.15;;;1.25;;
46028;SDS011;31763;48.180;7.904;2022-10-16T11:45:07;2.95;;;1.10;;
46028;SDS011;31763;48.180;7.904;2022-10-16T11:53:59;1.92;;;1.00;;
46028;SDS011;31763;48.180;7.904;2022-10-16T11:56:55;2.03;;;0.93;;
46028;SDS011;31763;48.180;7.904;2022-10-16T11:59:29;4.53;;;1.25;;
46028;SDS011;31763;48.180;7.904;2022-10-16T12:02:29;3.08;;;1.20;;
46028;SDS011;31763;48.180;7.904;2022-10-16T12:05:29;3.60;;;1.17;;
46028;SDS011;31763;48.180;7.904;2022-10-16T12:08:21;1.80;;;1.00;;
46028;SDS011;31763;48.180;7.904;2022-10-16T12:10:49;4.18;;;1.17;;
46028;SDS011;31763;48.180;7.904;2022-10-16T12:16:04;1.95;;;1.10;;
46028;SDS011;31763;48.180;7.904;2022-10-16T12:18:39;2.63;;;1.25;;
46028;SDS011;31763;48.180;7.904;2022-10-16T12:21:10;2.65;;;1.17;;
46028;SDS011;31763;48.180;7.904;2022-10-16T12:23:51;4.18;;;1.50;;
46028;SDS011;31763;48.180;7.904;2022-10-16T12:26:23;2.22;;;1.25;;
46028;SDS011;31763;48.180;7.904;2022-10-16T12:28:53;2.92;;;1.20;;
46028;SDS011;31763;48.180;7.904;2022-10-16T12:31:21;3.30;;;1.10;;
46028;SDS011;31763;48.180;7.904;2022-10-16T12:33:59;2.28;;;1.15;;
46028;SDS011;31763;48.180;7.904;2022-10-16T12:36:34;2.72;;;1.08;;
46028;SDS011;31763;48.180;7.904;2022-10-16T12:39:01;1.52;;;1.00;;
46028;SDS011;31763;48.180;7.904;2022-10-16T12:41:30;2.40;;;1.30;;
46028;SDS011;31763;48.180;7.904;2022-10-16T12:43:59;5.63;;;1.67;;
46028;SDS011;31763;48.180;7.904;2022-10-16T12:49:06;1.98;;;0.90;;
46028;SDS011;31763;48.180;7.904;2022-10-16T12:51:41;1.13;;;0.90;;
46028;SDS011;31763;48.180;7.904;2022-10-16T12:54:12;4.15;;;1.17;;
46028;SDS011;31763;48.180;7.904;2022-10-16T12:59:42;2.92;;;1.38;;
46028;SDS011;31763;48.180;7.904;2022-10-16T13:05:23;2.63;;;1.20;;
46028;SDS011;31763;48.180;7.904;2022-10-16T13:11:11;2.30;;;1.33;;
46028;SDS011;31763;48.180;7.904;2022-10-16T13:14:15;2.75;;;1.30;;
46028;SDS011;31763;48.180;7.904;2022-10-16T13:17:16;1.52;;;1.00;;
46028;SDS011;31763;48.180;7.904;2022-10-16T13:22:59;2.33;;;1.10;;
46028;SDS011;31763;48.180;7.904;2022-10-16T13:28:41;3.40;;;1.08;;
46028;SDS011;31763;48.180;7.904;2022-10-16T13:31:17;4.25;;;1.25;;
46028;SDS011;31763;48.180;7.904;2022-10-16T13:33:49;2.00;;;1.10;;
46028;SDS011;31763;48.180;7.904;2022-10-16T13:36:33;2.47;;;1.08;;
46028;SDS011;31763;48.180;7.904;2022-10-16T13:39:20;3.38;;;1.52;;
46028;SDS011;31763;48.180;7.904;2022-10-16T13:44:54;2.40;;;1.88;;
46028;SDS011;31763;48.180;7.904;2022-10-16T13:47:23;3.65;;;1.30;;
46028;SDS011;31763;48.180;7.904;2022-10-16T13:50:03;3.63;;;1.10;;
46028;SDS011;31763;48.180;7.904;2022-10-16T13:52:36;4.32;;;1.42;;
46028;SDS011;31763;48.180;7.904;2022-10-16T13:55:13;4.85;;;1.20;;
46028;SDS011;31763;48.180;7.904;2022-10-16T13:57:43;4.18;;;1.35;;
46028;SDS011;31763;48.180;7.904;2022-10-16T14:00:17;6.30;;;1.38;;
46028;SDS011;31763;48.180;7.904;2022-10-16T14:03:07;5.10;;;1.30;;
46028;SDS011;31763;48.180;7.904;2022-10-16T14:05:47;3.20;;;1.30;;
46028;SDS011;31763;48.180;7.904;2022-10-16T14:08:17;4.35;;;1.30;;
46028;SDS011;31763;48.180;7.904;2022-10-16T14:10:49;3.67;;;1.30;;
46028;SDS011;31763;48.180;7.904;2022-10-16T14:13:20;7.38;;;1.63;;
46028;SDS011;31763;48.180;7.904;2022-10-16T14:15:56;1.85;;;1.38;;
46028;SDS011;31763;48.180;7.904;2022-10-16T14:18:33;6.18;;;1.52;;
46028;SDS011;31763;48.180;7.904;2022-10-16T14:21:04;2.53;;;1.13;;
46028;SDS011;31763;48.180;7.904;2022-10-16T14:23:35;3.00;;;1.23;;
46028;SDS011;31763;48.180;7.904;2022-10-16T14:28:39;3.20;;;1.10;;
46028;SDS011;31763;48.180;7.904;2022-10-16T14:31:27;2.60;;;1.35;;
46028;SDS011;31763;48.180;7.904;2022-10-16T14:33:59;6.68;;;1.20;;
46028;SDS011;31763;48.180;7.904;2022-10-16T14:36:27;3.63;;;1.40;;
46028;SDS011;31763;48.180;7.904;2022-10-16T14:38:59;4.50;;;1.90;;
46028;SDS011;31763;48.180;7.904;2022-10-16T14:41:31;5.05;;;1.88;;
46028;SDS011;31763;48.180;7.904;2022-10-16T14:44:09;1.65;;;1.20;;
46028;SDS011;31763;48.180;7.904;2022-10-16T14:46:38;1.83;;;1.23;;
46028;SDS011;31763;48.180;7.904;2022-10-16T14:51:37;1.45;;;1.10;;
46028;SDS011;31763;48.180;7.904;2022-10-16T14:54:04;1.80;;;1.20;;
46028;SDS011;31763;48.180;7.904;2022-10-16T14:56:52;4.47;;;1.88;;
46028;SDS011;31763;48.180;7.904;2022-10-16T15:01:52;3.95;;;1.50;;
46028;SDS011;31763;48.180;7.904;2022-10-16T15:04:19;2.92;;;1.17;;
46028;SDS011;31763;48.180;7.904;2022-10-16T15:06:47;2.67;;;1.10;;
46028;SDS011;31763;48.180;7.904;2022-10-16T15:09:14;3.40;;;1.25;;
46028;SDS011;31763;48.180;7.904;2022-10-16T15:11:41;4.88;;;1.33;;
46028;SDS011;31763;48.180;7.904;2022-10-16T15:14:12;1.38;;;1.15;;
46028;SDS011;31763;48.180;7.904;2022-10-16T15:16:44;3.10;;;1.30;;
46028;SDS011;31763;48.180;7.904;2022-10-16T15:19:12;4.88;;;1.38;;
46028;SDS011;31763;48.180;7.904;2022-10-16T15:21:39;5.07;;;1.40;;
46028;SDS011;31763;48.180;7.904;2022-10-16T15:24:08;6.82;;;1.35;;
46028;SDS011;31763;48.180;7.904;2022-10-16T15:26:44;5.85;;;1.75;;
46028;SDS011;31763;48.180;7.904;2022-10-16T15:29:15;3.88;;;1.50;;
46028;SDS011;31763;48.180;7.904;2022-10-16T15:31:42;23.73;;;2.28;;
46028;SDS011;31763;48.180;7.904;2022-10-16T15:34:10;7.15;;;1.52;;
46028;SDS011;31763;48.180;7.904;2022-10-16T15:36:39;7.43;;;1.63;;
46028;SDS011;31763;48.180;7.904;2022-10-16T15:39:17;7.13;;;1.52;;
46028;SDS011;31763;48.180;7.904;2022-10-16T15:41:48;5.75;;;1.92;;
46028;SDS011;31763;48.180;7.904;2022-10-16T15:44:17;4.85;;;1.80;;
46028;SDS011;31763;48.180;7.904;2022-10-16T15:46:45;9.73;;;1.80;;
46028;SDS011;31763;48.180;7.904;2022-10-16T15:49:13;3.78;;;1.73;;
46028;SDS011;31763;48.180;7.904;2022-10-16T15:51:41;5.65;;;1.80;;
46028;SDS011;31763;48.180;7.904;2022-10-16T15:54:08;4.30;;;1.50;;
46028;SDS011;31763;48.180;7.904;2022-10-16T15:56:36;5.00;;;1.58;;
46028;SDS011;31763;48.180;7.904;2022-10-16T15:59:03;6.32;;;1.70;;
46028;SDS011;31763;48.180;7.904;2022-10-16T16:01:32;2.28;;;1.60;;
46028;SDS011;31763;48.180;7.904;2022-10-16T16:04:00;4.75;;;1.65;;
46028;SDS011;31763;48.180;7.904;2022-10-16T16:06:45;6.68;;;1.65;;
46028;SDS011;31763;48.180;7.904;2022-10-16T16:09:13;5.15;;;2.03;;
46028;SDS011;31763;48.180;7.904;2022-10-16T16:11:40;3.15;;;1.88;;
46028;SDS011;31763;48.180;7.904;2022-10-16T16:14:11;6.10;;;2.20;;
46028;SDS011;31763;48.180;7.904;2022-10-16T16:16:39;8.20;;;1.95;;
46028;SDS011;31763;48.180;7.904;2022-10-16T16:19:07;6.30;;;2.30;;
46028;SDS011;31763;48.180;7.904;2022-10-16T16:21:37;4.77;;;1.80;;
46028;SDS011;31763;48.180;7.904;2022-10-16T16:24:04;6.28;;;1.55;;
46028;SDS011;31763;48.180;7.904;2022-10-16T16:26:34;6.20;;;2.03;;
46028;SDS011;31763;48.180;7.904;2022-10-16T16:29:03;7.63;;;1.52;;
46028;SDS011;31763;48.180;7.904;2022-10-16T16:31:31;6.25;;;1.83;;
46028;SDS011;31763;48.180;7.904;2022-10-16T16:34:00;3.35;;;1.73;;
46028;SDS011;31763;48.180;7.904;2022-10-16T16:36:27;5.50;;;1.60;;
46028;SDS011;31763;48.180;7.904;2022-10-16T16:38:55;10.15;;;2.00;;
46028;SDS011;31763;48.180;7.904;2022-10-16T16:41:24;5.82;;;1.70;;
46028;SDS011;31763;48.180;7.904;2022-10-16T16:43:53;4.90;;;1.65;;
46028;SDS011;31763;48.180;7.904;2022-10-16T16:46:21;4.20;;;2.10;;
46028;SDS011;31763;48.180;7.904;2022-10-16T16:48:48;5.03;;;2.33;;
46028;SDS011;31763;48.180;7.904;2022-10-16T16:51:16;3.58;;;1.70;;
46028;SDS011;31763;48.180;7.904;2022-10-16T16:53:46;3.95;;;1.60;;
46028;SDS011;31763;48.180;7.904;2022-10-16T16:56:14;8.35;;;1.90;;
46028;SDS011;31763;48.180;7.904;2022-10-16T16:58:44;9.60;;;1.80;;
46028;SDS011;31763;48.180;7.904;2022-10-16T17:01:15;4.30;;;1.70;;
46028;SDS011;31763;48.180;7.904;2022-10-16T17:04:09;6.13;;;2.40;;
46028;SDS011;31763;48.180;7.904;2022-10-16T17:06:44;5.18;;;1.95;;
46028;SDS011;31763;48.180;7.904;2022-10-16T17:09:50;7.40;;;2.00;;
46028;SDS011;31763;48.180;7.904;2022-10-16T17:13:15;3.72;;;1.60;;
46028;SDS011;31763;48.180;7.904;2022-10-16T17:16:28;7.50;;;2.05;;
46028;SDS011;31763;48.180;7.904;2022-10-16T17:19:07;8.05;;;2.08;;
46028;SDS011;31763;48.180;7.904;2022-10-16T17:21:36;5.68;;;1.92;;
46028;SDS011;31763;48.180;7.904;2022-10-16T17:24:04;6.60;;;1.98;;
46028;SDS011;31763;48.180;7.904;2022-10-16T17:26:31;7.25;;;1.83;;
46028;SDS011;31763;48.180;7.904;2022-10-16T17:28:59;7.30;;;1.70;;
46028;SDS011;31763;48.180;7.904;2022-10-16T17:31:29;3.45;;;2.05;;
46028;SDS011;31763;48.180;7.904;2022-10-16T17:33:58;5.43;;;2.23;;
46028;SDS011;31763;48.180;7.904;2022-10-16T17:36:25;6.47;;;2.10;;
46028;SDS011;31763;48.180;7.904;2022-10-16T17:38:59;3.97;;;2.30;;
46028;SDS011;31763;48.180;7.904;2022-10-16T17:41:31;2.95;;;1.52;;
46028;SDS011;31763;48.180;7.904;2022-10-16T17:43:59;7.82;;;1.92;;
46028;SDS011;31763;48.180;7.904;2022-10-16T17:46:28;4.38;;;1.70;;